Pagrindinis puslapis
METAR-TAF:

METAR-TAF

Oro uostai :

Ponta Delgada, Azorai, Portugalija

platuma: 37-44N, ilguma: 025-42W, Aukštis: 71 m

Dabartinis oras

Ataskaita buvo paskelbta 16 minutes, ne 07:30 UTC
Vėjas 6 kt iš Šiaurės
Temperatūra 13°C
Drėgmė 82%
Slėgis 1033 hPa
Matomumas 10 km arba daugiau
Mažai debesys ne aukštis 1600 ft
Išsisklaidę debesys ne aukštis 2000 ft

METAR: LPPD 230730Z 01006KT 9999 FEW016 SCT020 13/10 Q1033

Laikas: 06:46 (07:46 UTC)

Prognozė

Ataskaita buvo paskelbta 2 valandos ir 46 minutes, ne 05:00 UTC
Prognozė galioja nuo 23 metu 06 UTC su 24 metu 06 UTC
Vėjas 5 kt iš Šiaurės/Šiaurės Rytų
Matomumas 10 km arba daugiau
Išsisklaidę debesys ne aukštis 1600 ft
Laikinai
nuo 23 metu 06 UTC su 23 metu 18 UTC
Su prošvaistėmis ne aukštis 1800 ft
Tapsmas
nuo 23 metu 09 UTC su 23 metu 11 UTC
Vėjas 8 kt iš Rytų/Pietryčių
Tapsmas
nuo 23 metu 15 UTC su 23 metu 18 UTC
Vėjas 5 kt nuo kintamojo kryptimis

TAF: LPPD 230500Z 2306/2406 03005KT 9999 SCT016 TEMPO 2306/2318 BKN018 BECMG 2309/2311 11008KT BECMG 2315/2318 VRB05KT

Orai ataskaitas ir orų prognozės (METAR, TAF).

turimą stotys yra geltonos ir raudonos taškus žemėlapyje.

Perkelti pele per norėdami pamatyti stoties vardą.

Tada spustelėkite, norėdami matyti oro stebėjimo ir prognozės.

Norėdami pakeisti žemėlapį: spustelėkite ant žalios mygtukų su juodo kryžiaus žemyn,; žalią mygtuką su brūkšneliu, jei norite nutolinti; arba žalių rodyklių gretimoms žemėlapius.


METAR-TAF: